sensor_id;sensor_type;location;lat;lon;timestamp;P1;durP1;ratioP1;P2;durP2;ratioP2
9150;SDS011;4610;50.006;7.490;2022-11-20T00:00:48;5.17;;;3.33;;
9150;SDS011;4610;50.006;7.490;2022-11-20T00:03:15;5.83;;;3.60;;
9150;SDS011;4610;50.006;7.490;2022-11-20T00:05:43;5.37;;;3.40;;
9150;SDS011;4610;50.006;7.490;2022-11-20T00:08:09;6.60;;;3.93;;
9150;SDS011;4610;50.006;7.490;2022-11-20T00:10:37;5.27;;;3.60;;
9150;SDS011;4610;50.006;7.490;2022-11-20T00:13:04;5.93;;;3.87;;
9150;SDS011;4610;50.006;7.490;2022-11-20T00:15:31;6.70;;;4.20;;
9150;SDS011;4610;50.006;7.490;2022-11-20T00:17:59;4.17;;;2.83;;
9150;SDS011;4610;50.006;7.490;2022-11-20T00:20:26;6.23;;;3.77;;
9150;SDS011;4610;50.006;7.490;2022-11-20T00:22:53;6.90;;;3.50;;
9150;SDS011;4610;50.006;7.490;2022-11-20T00:25:19;7.33;;;4.10;;
9150;SDS011;4610;50.006;7.490;2022-11-20T00:27:46;4.37;;;3.17;;
9150;SDS011;4610;50.006;7.490;2022-11-20T00:30:13;7.13;;;4.30;;
9150;SDS011;4610;50.006;7.490;2022-11-20T00:32:40;5.90;;;3.80;;
9150;SDS011;4610;50.006;7.490;2022-11-20T00:35:08;3.63;;;2.27;;
9150;SDS011;4610;50.006;7.490;2022-11-20T00:37:35;7.90;;;4.70;;
9150;SDS011;4610;50.006;7.490;2022-11-20T00:40:02;5.50;;;3.80;;
9150;SDS011;4610;50.006;7.490;2022-11-20T00:42:29;7.00;;;4.33;;
9150;SDS011;4610;50.006;7.490;2022-11-20T00:44:57;6.53;;;3.90;;
9150;SDS011;4610;50.006;7.490;2022-11-20T00:47:24;5.80;;;3.70;;
9150;SDS011;4610;50.006;7.490;2022-11-20T00:49:51;5.00;;;3.50;;
9150;SDS011;4610;50.006;7.490;2022-11-20T00:52:19;4.93;;;3.30;;
9150;SDS011;4610;50.006;7.490;2022-11-20T00:54:46;5.00;;;3.23;;
9150;SDS011;4610;50.006;7.490;2022-11-20T00:57:13;4.77;;;3.33;;
9150;SDS011;4610;50.006;7.490;2022-11-20T00:59:39;4.17;;;3.00;;
9150;SDS011;4610;50.006;7.490;2022-11-20T01:02:06;4.03;;;2.80;;
9150;SDS011;4610;50.006;7.490;2022-11-20T01:04:34;5.17;;;3.00;;
9150;SDS011;4610;50.006;7.490;2022-11-20T01:07:01;6.57;;;3.27;;
9150;SDS011;4610;50.006;7.490;2022-11-20T01:09:29;4.13;;;2.80;;
9150;SDS011;4610;50.006;7.490;2022-11-20T01:11:56;4.33;;;3.07;;
9150;SDS011;4610;50.006;7.490;2022-11-20T01:14:24;4.33;;;2.73;;
9150;SDS011;4610;50.006;7.490;2022-11-20T01:16:51;4.13;;;2.57;;
9150;SDS011;4610;50.006;7.490;2022-11-20T01:19:19;4.87;;;2.80;;
9150;SDS011;4610;50.006;7.490;2022-11-20T01:21:48;4.33;;;2.70;;
9150;SDS011;4610;50.006;7.490;2022-11-20T01:24:17;4.70;;;2.77;;
9150;SDS011;4610;50.006;7.490;2022-11-20T01:26:47;4.40;;;3.13;;
9150;SDS011;4610;50.006;7.490;2022-11-20T01:29:15;5.20;;;2.90;;
9150;SDS011;4610;50.006;7.490;2022-11-20T01:31:44;3.57;;;2.60;;
9150;SDS011;4610;50.006;7.490;2022-11-20T01:34:12;5.10;;;2.23;;
9150;SDS011;4610;50.006;7.490;2022-11-20T01:36:40;7.03;;;4.23;;
9150;SDS011;4610;50.006;7.490;2022-11-20T01:39:10;5.33;;;3.70;;
9150;SDS011;4610;50.006;7.490;2022-11-20T01:41:39;6.57;;;3.07;;
9150;SDS011;4610;50.006;7.490;2022-11-20T01:47:12;5.43;;;2.70;;
9150;SDS011;4610;50.006;7.490;2022-11-20T01:49:42;2.23;;;1.90;;
9150;SDS011;4610;50.006;7.490;2022-11-20T01:52:15;5.20;;;2.67;;
9150;SDS011;4610;50.006;7.490;2022-11-20T01:54:45;8.87;;;2.83;;
9150;SDS011;4610;50.006;7.490;2022-11-20T01:57:18;8.23;;;2.60;;
9150;SDS011;4610;50.006;7.490;2022-11-20T01:59:49;8.50;;;2.70;;
9150;SDS011;4610;50.006;7.490;2022-11-20T02:02:21;9.83;;;2.80;;
9150;SDS011;4610;50.006;7.490;2022-11-20T02:04:49;7.17;;;2.60;;
9150;SDS011;4610;50.006;7.490;2022-11-20T02:07:20;9.17;;;2.83;;
9150;SDS011;4610;50.006;7.490;2022-11-20T02:09:48;3.37;;;1.90;;
9150;SDS011;4610;50.006;7.490;2022-11-20T02:12:15;5.27;;;2.47;;
9150;SDS011;4610;50.006;7.490;2022-11-20T02:14:57;2.50;;;2.10;;
9150;SDS011;4610;50.006;7.490;2022-11-20T02:17:25;3.20;;;2.43;;
9150;SDS011;4610;50.006;7.490;2022-11-20T02:19:54;3.97;;;2.23;;
9150;SDS011;4610;50.006;7.490;2022-11-20T02:22:22;2.47;;;2.13;;
9150;SDS011;4610;50.006;7.490;2022-11-20T02:24:58;4.90;;;2.47;;
9150;SDS011;4610;50.006;7.490;2022-11-20T02:27:28;3.60;;;2.37;;
9150;SDS011;4610;50.006;7.490;2022-11-20T02:29:57;3.33;;;2.03;;
9150;SDS011;4610;50.006;7.490;2022-11-20T02:32:27;3.23;;;2.27;;
9150;SDS011;4610;50.006;7.490;2022-11-20T02:34:55;4.43;;;2.67;;
9150;SDS011;4610;50.006;7.490;2022-11-20T02:37:23;3.30;;;2.20;;
9150;SDS011;4610;50.006;7.490;2022-11-20T02:39:58;3.27;;;2.50;;
9150;SDS011;4610;50.006;7.490;2022-11-20T02:42:24;6.23;;;3.17;;
9150;SDS011;4610;50.006;7.490;2022-11-20T02:44:51;3.20;;;2.33;;
9150;SDS011;4610;50.006;7.490;2022-11-20T02:47:18;4.63;;;2.83;;
9150;SDS011;4610;50.006;7.490;2022-11-20T02:49:45;6.23;;;3.20;;
9150;SDS011;4610;50.006;7.490;2022-11-20T02:52:12;4.07;;;2.97;;
9150;SDS011;4610;50.006;7.490;2022-11-20T02:54:39;9.43;;;3.47;;
9150;SDS011;4610;50.006;7.490;2022-11-20T02:57:07;9.57;;;3.53;;
9150;SDS011;4610;50.006;7.490;2022-11-20T02:59:34;10.80;;;3.60;;
9150;SDS011;4610;50.006;7.490;2022-11-20T03:02:01;8.93;;;3.27;;
9150;SDS011;4610;50.006;7.490;2022-11-20T03:04:28;8.33;;;3.57;;
9150;SDS011;4610;50.006;7.490;2022-11-20T03:06:55;7.03;;;3.63;;
9150;SDS011;4610;50.006;7.490;2022-11-20T03:09:22;7.93;;;4.00;;
9150;SDS011;4610;50.006;7.490;2022-11-20T03:11:49;7.63;;;3.83;;
9150;SDS011;4610;50.006;7.490;2022-11-20T03:14:17;6.43;;;3.70;;
9150;SDS011;4610;50.006;7.490;2022-11-20T03:16:44;10.73;;;3.67;;
9150;SDS011;4610;50.006;7.490;2022-11-20T03:19:12;10.37;;;4.10;;
9150;SDS011;4610;50.006;7.490;2022-11-20T03:21:39;8.63;;;3.87;;
9150;SDS011;4610;50.006;7.490;2022-11-20T03:24:07;8.60;;;3.83;;
9150;SDS011;4610;50.006;7.490;2022-11-20T03:26:34;5.93;;;3.90;;
9150;SDS011;4610;50.006;7.490;2022-11-20T03:29:01;6.13;;;3.63;;
9150;SDS011;4610;50.006;7.490;2022-11-20T03:31:32;7.30;;;3.97;;
9150;SDS011;4610;50.006;7.490;2022-11-20T03:34:00;6.67;;;3.70;;
9150;SDS011;4610;50.006;7.490;2022-11-20T03:36:32;11.97;;;4.30;;
9150;SDS011;4610;50.006;7.490;2022-11-20T03:38:59;5.93;;;3.97;;
9150;SDS011;4610;50.006;7.490;2022-11-20T03:41:27;6.70;;;3.83;;
9150;SDS011;4610;50.006;7.490;2022-11-20T03:43:56;7.77;;;4.33;;
9150;SDS011;4610;50.006;7.490;2022-11-20T03:46:24;9.67;;;4.47;;
9150;SDS011;4610;50.006;7.490;2022-11-20T03:48:53;6.53;;;4.40;;
9150;SDS011;4610;50.006;7.490;2022-11-20T03:51:21;6.07;;;3.90;;
9150;SDS011;4610;50.006;7.490;2022-11-20T03:53:49;12.20;;;4.40;;
9150;SDS011;4610;50.006;7.490;2022-11-20T03:56:18;6.67;;;4.07;;
9150;SDS011;4610;50.006;7.490;2022-11-20T03:58:47;6.37;;;3.73;;
9150;SDS011;4610;50.006;7.490;2022-11-20T04:01:14;8.90;;;4.13;;
9150;SDS011;4610;50.006;7.490;2022-11-20T04:03:43;9.57;;;4.87;;
9150;SDS011;4610;50.006;7.490;2022-11-20T04:06:12;12.67;;;4.70;;
9150;SDS011;4610;50.006;7.490;2022-11-20T04:08:40;8.60;;;4.70;;
9150;SDS011;4610;50.006;7.490;2022-11-20T04:11:09;8.90;;;4.73;;
9150;SDS011;4610;50.006;7.490;2022-11-20T04:13:36;7.17;;;4.50;;
9150;SDS011;4610;50.006;7.490;2022-11-20T04:16:04;8.40;;;4.87;;
9150;SDS011;4610;50.006;7.490;2022-11-20T04:18:31;8.67;;;5.03;;
9150;SDS011;4610;50.006;7.490;2022-11-20T04:20:58;9.80;;;5.33;;
9150;SDS011;4610;50.006;7.490;2022-11-20T04:23:27;7.80;;;4.77;;
9150;SDS011;4610;50.006;7.490;2022-11-20T04:25:54;7.73;;;4.93;;
9150;SDS011;4610;50.006;7.490;2022-11-20T04:28:27;7.03;;;4.33;;
9150;SDS011;4610;50.006;7.490;2022-11-20T04:30:54;6.40;;;4.33;;
9150;SDS011;4610;50.006;7.490;2022-11-20T04:33:27;5.87;;;3.77;;
9150;SDS011;4610;50.006;7.490;2022-11-20T04:35:54;7.20;;;4.37;;
9150;SDS011;4610;50.006;7.490;2022-11-20T04:38:20;6.53;;;4.07;;
9150;SDS011;4610;50.006;7.490;2022-11-20T04:40:49;7.50;;;4.30;;
9150;SDS011;4610;50.006;7.490;2022-11-20T04:43:15;7.87;;;4.37;;
9150;SDS011;4610;50.006;7.490;2022-11-20T04:45:42;5.83;;;3.97;;
9150;SDS011;4610;50.006;7.490;2022-11-20T04:48:16;5.47;;;4.10;;
9150;SDS011;4610;50.006;7.490;2022-11-20T04:50:42;5.40;;;3.67;;
9150;SDS011;4610;50.006;7.490;2022-11-20T04:53:09;5.00;;;3.53;;
9150;SDS011;4610;50.006;7.490;2022-11-20T04:55:36;5.27;;;3.67;;
9150;SDS011;4610;50.006;7.490;2022-11-20T04:58:05;5.73;;;3.77;;
9150;SDS011;4610;50.006;7.490;2022-11-20T05:00:32;5.43;;;3.30;;
9150;SDS011;4610;50.006;7.490;2022-11-20T05:02:59;4.80;;;3.00;;
9150;SDS011;4610;50.006;7.490;2022-11-20T05:05:27;3.70;;;2.43;;
9150;SDS011;4610;50.006;7.490;2022-11-20T05:07:55;4.23;;;3.00;;
9150;SDS011;4610;50.006;7.490;2022-11-20T05:10:23;4.00;;;2.97;;
9150;SDS011;4610;50.006;7.490;2022-11-20T05:12:50;4.73;;;3.10;;
9150;SDS011;4610;50.006;7.490;2022-11-20T05:15:18;3.90;;;2.77;;
9150;SDS011;4610;50.006;7.490;2022-11-20T05:17:46;3.53;;;2.70;;
9150;SDS011;4610;50.006;7.490;2022-11-20T05:20:14;4.50;;;3.10;;
9150;SDS011;4610;50.006;7.490;2022-11-20T05:22:41;3.30;;;2.50;;
9150;SDS011;4610;50.006;7.490;2022-11-20T05:25:08;4.20;;;2.77;;
9150;SDS011;4610;50.006;7.490;2022-11-20T05:27:35;3.60;;;2.70;;
9150;SDS011;4610;50.006;7.490;2022-11-20T05:30:03;2.87;;;2.20;;
9150;SDS011;4610;50.006;7.490;2022-11-20T05:32:32;3.27;;;2.40;;
9150;SDS011;4610;50.006;7.490;2022-11-20T05:34:59;3.20;;;2.20;;
9150;SDS011;4610;50.006;7.490;2022-11-20T05:37:26;2.47;;;2.03;;
9150;SDS011;4610;50.006;7.490;2022-11-20T05:39:53;2.23;;;2.00;;
9150;SDS011;4610;50.006;7.490;2022-11-20T05:42:20;2.87;;;2.00;;
9150;SDS011;4610;50.006;7.490;2022-11-20T05:44:56;3.43;;;2.07;;
9150;SDS011;4610;50.006;7.490;2022-11-20T05:47:23;2.00;;;1.80;;
9150;SDS011;4610;50.006;7.490;2022-11-20T05:49:51;3.27;;;2.10;;
9150;SDS011;4610;50.006;7.490;2022-11-20T05:52:18;5.30;;;2.43;;
9150;SDS011;4610;50.006;7.490;2022-11-20T05:54:45;4.70;;;3.17;;
9150;SDS011;4610;50.006;7.490;2022-11-20T05:57:12;4.43;;;2.67;;
9150;SDS011;4610;50.006;7.490;2022-11-20T05:59:39;3.43;;;2.07;;
9150;SDS011;4610;50.006;7.490;2022-11-20T06:02:07;4.00;;;2.67;;
9150;SDS011;4610;50.006;7.490;2022-11-20T06:04:34;3.93;;;2.27;;
9150;SDS011;4610;50.006;7.490;2022-11-20T06:07:05;6.83;;;2.73;;
9150;SDS011;4610;50.006;7.490;2022-11-20T06:09:33;5.23;;;2.50;;
9150;SDS011;4610;50.006;7.490;2022-11-20T06:12:00;7.10;;;3.13;;
9150;SDS011;4610;50.006;7.490;2022-11-20T06:14:28;7.07;;;3.37;;
9150;SDS011;4610;50.006;7.490;2022-11-20T06:16:55;6.97;;;3.10;;
9150;SDS011;4610;50.006;7.490;2022-11-20T06:19:22;8.70;;;3.43;;
9150;SDS011;4610;50.006;7.490;2022-11-20T06:21:49;8.07;;;3.43;;
9150;SDS011;4610;50.006;7.490;2022-11-20T06:24:17;7.80;;;3.40;;
9150;SDS011;4610;50.006;7.490;2022-11-20T06:26:45;8.67;;;3.40;;
9150;SDS011;4610;50.006;7.490;2022-11-20T06:29:12;7.30;;;3.30;;
9150;SDS011;4610;50.006;7.490;2022-11-20T06:31:39;8.00;;;3.57;;
9150;SDS011;4610;50.006;7.490;2022-11-20T06:34:07;8.30;;;3.40;;
9150;SDS011;4610;50.006;7.490;2022-11-20T06:36:34;8.97;;;3.60;;
9150;SDS011;4610;50.006;7.490;2022-11-20T06:39:01;9.87;;;4.30;;
9150;SDS011;4610;50.006;7.490;2022-11-20T06:41:30;11.47;;;3.97;;
9150;SDS011;4610;50.006;7.490;2022-11-20T06:43:56;10.37;;;4.13;;
9150;SDS011;4610;50.006;7.490;2022-11-20T06:46:24;11.43;;;4.07;;
9150;SDS011;4610;50.006;7.490;2022-11-20T06:48:51;9.00;;;3.47;;
9150;SDS011;4610;50.006;7.490;2022-11-20T06:51:18;5.40;;;3.13;;
9150;SDS011;4610;50.006;7.490;2022-11-20T06:53:46;7.83;;;3.30;;
9150;SDS011;4610;50.006;7.490;2022-11-20T06:56:13;10.00;;;3.57;;
9150;SDS011;4610;50.006;7.490;2022-11-20T06:58:41;10.77;;;4.00;;
9150;SDS011;4610;50.006;7.490;2022-11-20T07:01:09;4.70;;;2.73;;
9150;SDS011;4610;50.006;7.490;2022-11-20T07:03:37;8.43;;;3.67;;
9150;SDS011;4610;50.006;7.490;2022-11-20T07:06:05;5.07;;;3.00;;
9150;SDS011;4610;50.006;7.490;2022-11-20T07:08:33;10.10;;;4.70;;
9150;SDS011;4610;50.006;7.490;2022-11-20T07:11:00;7.60;;;3.33;;
9150;SDS011;4610;50.006;7.490;2022-11-20T07:13:29;8.30;;;3.50;;
9150;SDS011;4610;50.006;7.490;2022-11-20T07:16:00;7.43;;;3.30;;
9150;SDS011;4610;50.006;7.490;2022-11-20T07:18:28;10.63;;;4.43;;
9150;SDS011;4610;50.006;7.490;2022-11-20T07:20:55;8.93;;;3.30;;
9150;SDS011;4610;50.006;7.490;2022-11-20T07:23:22;7.80;;;3.40;;
9150;SDS011;4610;50.006;7.490;2022-11-20T07:25:49;6.77;;;3.23;;
9150;SDS011;4610;50.006;7.490;2022-11-20T07:28:16;7.00;;;3.27;;
9150;SDS011;4610;50.006;7.490;2022-11-20T07:30:43;9.87;;;3.50;;
9150;SDS011;4610;50.006;7.490;2022-11-20T07:33:17;8.00;;;3.27;;
9150;SDS011;4610;50.006;7.490;2022-11-20T07:35:44;8.03;;;3.33;;
9150;SDS011;4610;50.006;7.490;2022-11-20T07:38:11;9.57;;;3.53;;
9150;SDS011;4610;50.006;7.490;2022-11-20T07:40:38;8.03;;;3.33;;
9150;SDS011;4610;50.006;7.490;2022-11-20T07:43:04;5.77;;;2.80;;
9150;SDS011;4610;50.006;7.490;2022-11-20T07:45:31;7.43;;;3.10;;
9150;SDS011;4610;50.006;7.490;2022-11-20T07:47:59;8.73;;;3.00;;
9150;SDS011;4610;50.006;7.490;2022-11-20T07:50:27;6.53;;;3.03;;
9150;SDS011;4610;50.006;7.490;2022-11-20T07:52:59;7.17;;;3.03;;
9150;SDS011;4610;50.006;7.490;2022-11-20T07:55:27;6.77;;;2.90;;
9150;SDS011;4610;50.006;7.490;2022-11-20T07:57:54;7.43;;;3.27;;
9150;SDS011;4610;50.006;7.490;2022-11-20T08:00:21;7.50;;;2.93;;
9150;SDS011;4610;50.006;7.490;2022-11-20T08:02:49;7.53;;;3.13;;
9150;SDS011;4610;50.006;7.490;2022-11-20T08:05:16;5.53;;;2.93;;
9150;SDS011;4610;50.006;7.490;2022-11-20T08:07:45;11.60;;;3.23;;
9150;SDS011;4610;50.006;7.490;2022-11-20T08:10:12;7.30;;;3.33;;
9150;SDS011;4610;50.006;7.490;2022-11-20T08:12:43;8.30;;;3.73;;
9150;SDS011;4610;50.006;7.490;2022-11-20T08:15:28;8.13;;;3.47;;
9150;SDS011;4610;50.006;7.490;2022-11-20T08:17:59;10.23;;;3.80;;
9150;SDS011;4610;50.006;7.490;2022-11-20T08:20:26;8.20;;;3.73;;
9150;SDS011;4610;50.006;7.490;2022-11-20T08:22:58;9.40;;;3.90;;
9150;SDS011;4610;50.006;7.490;2022-11-20T08:25:26;8.93;;;4.07;;
9150;SDS011;4610;50.006;7.490;2022-11-20T08:27:53;10.90;;;4.00;;
9150;SDS011;4610;50.006;7.490;2022-11-20T08:30:20;9.93;;;4.43;;
9150;SDS011;4610;50.006;7.490;2022-11-20T08:32:47;8.13;;;3.87;;
9150;SDS011;4610;50.006;7.490;2022-11-20T08:35:15;6.87;;;3.53;;
9150;SDS011;4610;50.006;7.490;2022-11-20T08:37:42;10.27;;;4.00;;
9150;SDS011;4610;50.006;7.490;2022-11-20T08:40:14;11.03;;;4.70;;
9150;SDS011;4610;50.006;7.490;2022-11-20T08:42:48;10.03;;;4.40;;
9150;SDS011;4610;50.006;7.490;2022-11-20T08:45:15;4.97;;;3.63;;
9150;SDS011;4610;50.006;7.490;2022-11-20T08:47:43;9.87;;;4.13;;
9150;SDS011;4610;50.006;7.490;2022-11-20T08:50:11;9.00;;;3.87;;
9150;SDS011;4610;50.006;7.490;2022-11-20T08:52:40;10.53;;;4.47;;
9150;SDS011;4610;50.006;7.490;2022-11-20T08:55:07;13.83;;;4.60;;
9150;SDS011;4610;50.006;7.490;2022-11-20T08:57:37;12.67;;;4.70;;
9150;SDS011;4610;50.006;7.490;2022-11-20T09:00:04;15.23;;;4.90;;
9150;SDS011;4610;50.006;7.490;2022-11-20T09:02:34;13.97;;;4.80;;
9150;SDS011;4610;50.006;7.490;2022-11-20T09:05:01;12.53;;;4.77;;
9150;SDS011;4610;50.006;7.490;2022-11-20T09:07:28;12.27;;;4.80;;
9150;SDS011;4610;50.006;7.490;2022-11-20T09:09:55;10.67;;;4.33;;
9150;SDS011;4610;50.006;7.490;2022-11-20T09:12:22;11.93;;;4.90;;
9150;SDS011;4610;50.006;7.490;2022-11-20T09:14:51;11.93;;;4.33;;
9150;SDS011;4610;50.006;7.490;2022-11-20T09:17:17;15.10;;;4.80;;
9150;SDS011;4610;50.006;7.490;2022-11-20T09:19:45;12.77;;;5.07;;
9150;SDS011;4610;50.006;7.490;2022-11-20T09:22:13;14.07;;;5.50;;
9150;SDS011;4610;50.006;7.490;2022-11-20T09:24:40;14.23;;;5.47;;
9150;SDS011;4610;50.006;7.490;2022-11-20T09:27:07;14.40;;;5.77;;
9150;SDS011;4610;50.006;7.490;2022-11-20T09:29:34;11.27;;;5.50;;
9150;SDS011;4610;50.006;7.490;2022-11-20T09:32:02;11.50;;;4.87;;
9150;SDS011;4610;50.006;7.490;2022-11-20T09:34:29;15.53;;;6.10;;
9150;SDS011;4610;50.006;7.490;2022-11-20T09:36:56;18.07;;;5.90;;
9150;SDS011;4610;50.006;7.490;2022-11-20T09:39:23;6.83;;;4.07;;
9150;SDS011;4610;50.006;7.490;2022-11-20T09:44:49;15.53;;;5.47;;
9150;SDS011;4610;50.006;7.490;2022-11-20T09:47:44;15.23;;;5.37;;
9150;SDS011;4610;50.006;7.490;2022-11-20T09:50:23;13.63;;;4.93;;
9150;SDS011;4610;50.006;7.490;2022-11-20T09:52:56;12.03;;;4.73;;
9150;SDS011;4610;50.006;7.490;2022-11-20T09:55:35;11.90;;;5.47;;
9150;SDS011;4610;50.006;7.490;2022-11-20T09:58:04;11.20;;;5.27;;
9150;SDS011;4610;50.006;7.490;2022-11-20T10:00:33;13.70;;;5.33;;
9150;SDS011;4610;50.006;7.490;2022-11-20T10:03:03;10.40;;;4.73;;
9150;SDS011;4610;50.006;7.490;2022-11-20T10:05:40;12.20;;;5.53;;
9150;SDS011;4610;50.006;7.490;2022-11-20T10:08:15;13.03;;;5.60;;
9150;SDS011;4610;50.006;7.490;2022-11-20T10:10:46;12.07;;;5.33;;
9150;SDS011;4610;50.006;7.490;2022-11-20T10:13:23;13.47;;;5.83;;
9150;SDS011;4610;50.006;7.490;2022-11-20T10:16:03;11.30;;;5.57;;
9150;SDS011;4610;50.006;7.490;2022-11-20T10:18:45;13.33;;;5.97;;
9150;SDS011;4610;50.006;7.490;2022-11-20T10:21:23;15.70;;;6.20;;
9150;SDS011;4610;50.006;7.490;2022-11-20T10:24:04;15.20;;;6.17;;
9150;SDS011;4610;50.006;7.490;2022-11-20T10:26:52;14.63;;;6.27;;
9150;SDS011;4610;50.006;7.490;2022-11-20T10:29:27;13.00;;;6.17;;
9150;SDS011;4610;50.006;7.490;2022-11-20T10:32:00;15.13;;;6.13;;
9150;SDS011;4610;50.006;7.490;2022-11-20T10:34:31;12.97;;;6.13;;
9150;SDS011;4610;50.006;7.490;2022-11-20T10:37:12;15.03;;;6.57;;
9150;SDS011;4610;50.006;7.490;2022-11-20T10:39:47;17.43;;;6.73;;
9150;SDS011;4610;50.006;7.490;2022-11-20T10:42:23;13.73;;;6.07;;
9150;SDS011;4610;50.006;7.490;2022-11-20T10:44:58;15.37;;;6.50;;
9150;SDS011;4610;50.006;7.490;2022-11-20T10:47:37;13.33;;;6.27;;
9150;SDS011;4610;50.006;7.490;2022-11-20T10:50:08;12.47;;;5.87;;
9150;SDS011;4610;50.006;7.490;2022-11-20T10:52:42;16.20;;;7.17;;
9150;SDS011;4610;50.006;7.490;2022-11-20T10:55:21;14.20;;;6.07;;
9150;SDS011;4610;50.006;7.490;2022-11-20T10:57:58;14.57;;;6.23;;
9150;SDS011;4610;50.006;7.490;2022-11-20T11:00:32;13.10;;;5.70;;
9150;SDS011;4610;50.006;7.490;2022-11-20T11:02:59;13.03;;;5.63;;
9150;SDS011;4610;50.006;7.490;2022-11-20T11:05:35;15.20;;;5.50;;
9150;SDS011;4610;50.006;7.490;2022-11-20T11:08:07;12.20;;;4.43;;
9150;SDS011;4610;50.006;7.490;2022-11-20T11:10:42;10.37;;;4.80;;
9150;SDS011;4610;50.006;7.490;2022-11-20T11:13:19;13.10;;;4.73;;
9150;SDS011;4610;50.006;7.490;2022-11-20T11:15:47;13.50;;;5.07;;
9150;SDS011;4610;50.006;7.490;2022-11-20T11:18:22;10.33;;;4.80;;
9150;SDS011;4610;50.006;7.490;2022-11-20T11:20:52;15.77;;;5.47;;
9150;SDS011;4610;50.006;7.490;2022-11-20T11:23:28;13.20;;;4.73;;
9150;SDS011;4610;50.006;7.490;2022-11-20T11:25:57;10.13;;;4.37;;
9150;SDS011;4610;50.006;7.490;2022-11-20T11:28:25;14.07;;;5.30;;
9150;SDS011;4610;50.006;7.490;2022-11-20T11:30:53;14.07;;;5.00;;
9150;SDS011;4610;50.006;7.490;2022-11-20T11:33:22;11.07;;;4.33;;
9150;SDS011;4610;50.006;7.490;2022-11-20T11:35:52;10.43;;;3.93;;
9150;SDS011;4610;50.006;7.490;2022-11-20T11:38:26;15.73;;;5.43;;
9150;SDS011;4610;50.006;7.490;2022-11-20T11:40:57;11.13;;;4.33;;
9150;SDS011;4610;50.006;7.490;2022-11-20T11:43:25;11.80;;;4.17;;
9150;SDS011;4610;50.006;7.490;2022-11-20T11:46:23;11.57;;;4.43;;
9150;SDS011;4610;50.006;7.490;2022-11-20T11:48:56;55.30;;;9.17;;
9150;SDS011;4610;50.006;7.490;2022-11-20T11:51:27;43.43;;;8.77;;
9150;SDS011;4610;50.006;7.490;2022-11-20T11:54:00;52.17;;;9.57;;
9150;SDS011;4610;50.006;7.490;2022-11-20T11:56:35;54.97;;;9.23;;
9150;SDS011;4610;50.006;7.490;2022-11-20T11:59:04;68.10;;;11.80;;
9150;SDS011;4610;50.006;7.490;2022-11-20T12:01:37;68.93;;;11.47;;
9150;SDS011;4610;50.006;7.490;2022-11-20T12:04:12;54.73;;;9.57;;
9150;SDS011;4610;50.006;7.490;2022-11-20T12:06:47;58.93;;;10.00;;
9150;SDS011;4610;50.006;7.490;2022-11-20T12:09:17;62.67;;;11.17;;
9150;SDS011;4610;50.006;7.490;2022-11-20T12:11:48;61.70;;;10.63;;
9150;SDS011;4610;50.006;7.490;2022-11-20T12:14:20;48.37;;;7.80;;
9150;SDS011;4610;50.006;7.490;2022-11-20T12:16:52;46.10;;;8.33;;
9150;SDS011;4610;50.006;7.490;2022-11-20T12:19:20;51.23;;;8.60;;
9150;SDS011;4610;50.006;7.490;2022-11-20T12:21:52;40.23;;;7.57;;
9150;SDS011;4610;50.006;7.490;2022-11-20T12:24:32;54.23;;;8.93;;
9150;SDS011;4610;50.006;7.490;2022-11-20T12:27:15;45.67;;;8.10;;
9150;SDS011;4610;50.006;7.490;2022-11-20T12:30:14;48.57;;;8.57;;
9150;SDS011;4610;50.006;7.490;2022-11-20T12:35:44;72.90;;;11.10;;
9150;SDS011;4610;50.006;7.490;2022-11-20T12:38:34;56.00;;;9.60;;
9150;SDS011;4610;50.006;7.490;2022-11-20T12:41:12;49.70;;;8.03;;
9150;SDS011;4610;50.006;7.490;2022-11-20T12:44:04;54.90;;;9.33;;
9150;SDS011;4610;50.006;7.490;2022-11-20T12:47:00;57.97;;;9.40;;
9150;SDS011;4610;50.006;7.490;2022-11-20T12:49:41;64.23;;;10.90;;
9150;SDS011;4610;50.006;7.490;2022-11-20T12:52:19;38.13;;;6.60;;
9150;SDS011;4610;50.006;7.490;2022-11-20T12:57:54;70.10;;;11.00;;
9150;SDS011;4610;50.006;7.490;2022-11-20T13:00:28;50.13;;;8.33;;
9150;SDS011;4610;50.006;7.490;2022-11-20T13:03:03;46.33;;;8.13;;
9150;SDS011;4610;50.006;7.490;2022-11-20T13:05:50;54.87;;;8.83;;
9150;SDS011;4610;50.006;7.490;2022-11-20T13:08:23;39.47;;;7.03;;
9150;SDS011;4610;50.006;7.490;2022-11-20T13:10:55;39.47;;;7.23;;
9150;SDS011;4610;50.006;7.490;2022-11-20T13:13:31;62.13;;;10.37;;
9150;SDS011;4610;50.006;7.490;2022-11-20T13:16:08;56.33;;;9.27;;
9150;SDS011;4610;50.006;7.490;2022-11-20T13:18:39;58.03;;;9.73;;
9150;SDS011;4610;50.006;7.490;2022-11-20T13:21:15;60.00;;;9.97;;
9150;SDS011;4610;50.006;7.490;2022-11-20T13:23:43;51.07;;;8.57;;
9150;SDS011;4610;50.006;7.490;2022-11-20T13:26:15;48.40;;;7.67;;
9150;SDS011;4610;50.006;7.490;2022-11-20T13:28:46;47.67;;;8.10;;
9150;SDS011;4610;50.006;7.490;2022-11-20T13:31:28;113.40;;;16.50;;
9150;SDS011;4610;50.006;7.490;2022-11-20T13:33:57;49.47;;;7.57;;
9150;SDS011;4610;50.006;7.490;2022-11-20T13:36:28;48.93;;;7.83;;
9150;SDS011;4610;50.006;7.490;2022-11-20T13:38:56;59.67;;;9.23;;
9150;SDS011;4610;50.006;7.490;2022-11-20T13:41:24;48.00;;;7.80;;
9150;SDS011;4610;50.006;7.490;2022-11-20T13:44:05;64.77;;;9.90;;
9150;SDS011;4610;50.006;7.490;2022-11-20T13:46:37;36.90;;;6.33;;
9150;SDS011;4610;50.006;7.490;2022-11-20T13:49:09;50.13;;;8.07;;
9150;SDS011;4610;50.006;7.490;2022-11-20T13:51:47;60.37;;;9.90;;
9150;SDS011;4610;50.006;7.490;2022-11-20T13:54:20;65.77;;;9.93;;
9150;SDS011;4610;50.006;7.490;2022-11-20T13:57:01;55.83;;;8.83;;
9150;SDS011;4610;50.006;7.490;2022-11-20T13:59:43;63.93;;;9.53;;
9150;SDS011;4610;50.006;7.490;2022-11-20T14:02:18;31.43;;;5.53;;
9150;SDS011;4610;50.006;7.490;2022-11-20T14:04:48;53.33;;;8.27;;
9150;SDS011;4610;50.006;7.490;2022-11-20T14:07:18;58.80;;;9.23;;
9150;SDS011;4610;50.006;7.490;2022-11-20T14:09:50;55.13;;;8.53;;
9150;SDS011;4610;50.006;7.490;2022-11-20T14:12:19;42.53;;;6.50;;
9150;SDS011;4610;50.006;7.490;2022-11-20T14:14:50;48.13;;;7.40;;
9150;SDS011;4610;50.006;7.490;2022-11-20T14:17:19;61.00;;;9.13;;
9150;SDS011;4610;50.006;7.490;2022-11-20T14:19:48;62.77;;;9.73;;
9150;SDS011;4610;50.006;7.490;2022-11-20T14:22:18;59.37;;;9.50;;
9150;SDS011;4610;50.006;7.490;2022-11-20T14:24:47;68.20;;;10.23;;
9150;SDS011;4610;50.006;7.490;2022-11-20T14:27:15;55.77;;;8.93;;
9150;SDS011;4610;50.006;7.490;2022-11-20T14:29:44;53.77;;;8.57;;
9150;SDS011;4610;50.006;7.490;2022-11-20T14:32:16;55.33;;;8.47;;
9150;SDS011;4610;50.006;7.490;2022-11-20T14:34:45;66.83;;;9.83;;
9150;SDS011;4610;50.006;7.490;2022-11-20T14:37:17;79.87;;;12.80;;
9150;SDS011;4610;50.006;7.490;2022-11-20T14:39:48;43.00;;;6.70;;
9150;SDS011;4610;50.006;7.490;2022-11-20T14:42:18;53.93;;;8.33;;
9150;SDS011;4610;50.006;7.490;2022-11-20T14:44:47;48.27;;;7.40;;
9150;SDS011;4610;50.006;7.490;2022-11-20T14:47:17;54.10;;;8.57;;
9150;SDS011;4610;50.006;7.490;2022-11-20T14:49:47;68.90;;;10.50;;
9150;SDS011;4610;50.006;7.490;2022-11-20T14:52:15;55.97;;;8.70;;
9150;SDS011;4610;50.006;7.490;2022-11-20T14:54:44;46.77;;;6.90;;
9150;SDS011;4610;50.006;7.490;2022-11-20T14:57:22;61.57;;;9.33;;
9150;SDS011;4610;50.006;7.490;2022-11-20T14:59:51;52.83;;;8.27;;
9150;SDS011;4610;50.006;7.490;2022-11-20T15:02:30;69.10;;;10.27;;
9150;SDS011;4610;50.006;7.490;2022-11-20T15:04:58;61.33;;;9.47;;
9150;SDS011;4610;50.006;7.490;2022-11-20T15:07:29;56.87;;;8.57;;
9150;SDS011;4610;50.006;7.490;2022-11-20T15:10:00;52.67;;;8.07;;
9150;SDS011;4610;50.006;7.490;2022-11-20T15:12:28;48.60;;;7.63;;
9150;SDS011;4610;50.006;7.490;2022-11-20T15:14:56;62.27;;;9.63;;
9150;SDS011;4610;50.006;7.490;2022-11-20T15:17:23;55.63;;;8.57;;
9150;SDS011;4610;50.006;7.490;2022-11-20T15:19:51;70.27;;;10.47;;
9150;SDS011;4610;50.006;7.490;2022-11-20T15:22:19;70.37;;;10.43;;
9150;SDS011;4610;50.006;7.490;2022-11-20T15:24:46;61.40;;;10.17;;
9150;SDS011;4610;50.006;7.490;2022-11-20T15:27:13;49.43;;;7.73;;
9150;SDS011;4610;50.006;7.490;2022-11-20T15:29:40;47.63;;;7.50;;
9150;SDS011;4610;50.006;7.490;2022-11-20T15:32:08;38.57;;;6.20;;
9150;SDS011;4610;50.006;7.490;2022-11-20T15:34:35;58.50;;;8.80;;
9150;SDS011;4610;50.006;7.490;2022-11-20T15:37:04;57.97;;;8.77;;